Time;durP1;ratioP1;P1;durP2;ratioP2;P2;SDS_P1;SDS_P2;PMS_P1;PMS_P2;Temp;Humidity;BMP_temperature;BMP_pressure;BME280_temperature;BME280_humidity;BME280_pressure;Samples;Min_cycle;Max_cycle;Signal;HPM_P1;HPM_P2
2023/01/21 00:01:55;;;;;;;45.88;22.58;;;0.20;74.50;;;;;;4667367;30;114510;-81
2023/01/21 00:04:23;;;;;;;43.35;22.50;;;0.20;74.50;;;;;;4651983;30;114663;-82
2023/01/21 00:06:55;;;;;;;46.35;21.67;;;0.20;74.50;;;;;;4649461;30;119535;-82
2023/01/21 00:09:22;;;;;;;47.55;22.55;;;0.20;74.50;;;;;;4665852;30;114854;-82
2023/01/21 00:11:50;;;;;;;43.30;22.58;;;0.30;74.40;;;;;;4651877;30;114828;-82
2023/01/21 00:14:17;;;;;;;45.28;22.45;;;0.20;74.50;;;;;;4667065;30;114577;-81
2023/01/21 00:16:44;;;;;;;47.17;22.35;;;0.20;74.50;;;;;;4665680;30;115695;-82
2023/01/21 00:19:11;;;;;;;42.10;21.58;;;0.30;74.50;;;;;;4666406;30;115920;-81
2023/01/21 00:21:39;;;;;;;42.15;20.50;;;0.40;74.60;;;;;;4651379;30;114863;-81
2023/01/21 00:24:06;;;;;;;40.67;19.85;;;0.40;74.60;;;;;;4636932;30;114772;-81
2023/01/21 00:26:33;;;;;;;37.97;20.60;;;0.40;74.60;;;;;;4664945;30;115247;-82
2023/01/21 00:29:01;;;;;;;41.63;20.88;;;0.40;74.50;;;;;;4651206;30;114864;-81
2023/01/21 00:31:40;;;;;;;38.90;20.20;;;0.50;74.50;;;;;;4651233;30;114745;-81
2023/01/21 00:34:09;;;;;;;38.38;19.70;;;0.50;74.50;;;;;;4651869;30;114833;-81
2023/01/21 00:36:36;;;;;;;35.13;17.50;;;0.50;74.30;;;;;;4633148;30;115149;-81
2023/01/21 00:39:03;;;;;;;39.25;18.13;;;0.50;74.20;;;;;;4633576;30;116806;-81
2023/01/21 00:41:32;;;;;;;38.95;19.40;;;0.50;74.30;;;;;;4633471;30;114771;-82
2023/01/21 00:43:59;;;;;;;38.20;19.02;;;0.50;74.30;;;;;;4634592;30;114891;-82
2023/01/21 00:46:27;;;;;;;33.78;15.95;;;0.60;74.10;;;;;;4647720;30;115088;-81
2023/01/21 00:48:55;;;;;;;34.28;19.58;;;0.60;74.00;;;;;;4649134;30;117750;-82
2023/01/21 00:51:22;;;;;;;39.67;17.77;;;0.50;74.10;;;;;;4645184;30;116353;-82
2023/01/21 00:53:49;;;;;;;33.55;16.42;;;0.50;74.20;;;;;;4648424;30;114637;-81
2023/01/21 00:56:17;;;;;;;35.92;16.70;;;0.50;74.20;;;;;;4647792;30;118372;-81
2023/01/21 00:58:44;;;;;;;36.63;18.15;;;0.40;74.10;;;;;;4633907;30;115115;-81
2023/01/21 01:01:19;;;;;;;33.63;17.73;;;0.50;74.30;;;;;;4649288;30;114792;-82
2023/01/21 01:03:47;;;;;;;33.00;16.92;;;0.50;74.30;;;;;;4651222;30;118407;-82
2023/01/21 01:06:18;;;;;;;34.95;16.80;;;0.50;74.20;;;;;;4650060;30;115809;-82
2023/01/21 01:08:45;;;;;;;34.97;16.95;;;0.50;74.20;;;;;;4635660;30;115305;-81
2023/01/21 01:11:13;;;;;;;37.45;17.85;;;0.50;74.20;;;;;;4650665;30;114655;-82
2023/01/21 01:13:40;;;;;;;31.65;16.80;;;0.60;74.20;;;;;;4652514;30;115255;-82
2023/01/21 01:16:08;;;;;;;36.67;18.33;;;0.60;74.10;;;;;;4668847;30;115254;-82
2023/01/21 01:18:38;;;;;;;32.75;17.10;;;0.60;74.00;;;;;;4638824;30;114959;-82
2023/01/21 01:21:09;;;;;;;32.60;16.05;;;0.60;74.00;;;;;;4666120;30;114826;-81
2023/01/21 01:23:38;;;;;;;36.47;17.27;;;0.50;74.00;;;;;;4649306;30;114738;-82
2023/01/21 01:26:07;;;;;;;31.33;15.82;;;0.50;73.90;;;;;;4650754;30;115438;-82
2023/01/21 01:28:34;;;;;;;36.63;16.42;;;0.50;73.80;;;;;;4668640;30;114715;-82
2023/01/21 01:31:04;;;;;;;32.90;16.75;;;0.50;73.90;;;;;;4653056;30;114961;-82
2023/01/21 01:33:32;;;;;;;39.28;17.55;;;0.50;74.10;;;;;;4653558;30;114857;-82
2023/01/21 01:36:05;;;;;;;35.50;15.95;;;0.40;74.10;;;;;;4667905;30;115770;-82
2023/01/21 01:38:33;;;;;;;32.17;15.45;;;0.40;74.00;;;;;;4664662;30;114707;-82
2023/01/21 01:41:01;;;;;;;35.00;16.42;;;0.40;74.00;;;;;;4622793;30;115529;-82
2023/01/21 01:43:52;;;;;;;33.78;17.58;;;0.50;74.10;;;;;;4621529;30;114781;-82
2023/01/21 01:46:21;;;;;;;34.15;16.30;;;0.50;74.10;;;;;;4665121;30;117268;-81
2023/01/21 01:49:14;;;;;;;32.97;16.45;;;0.50;74.10;;;;;;4667296;30;114854;-82
2023/01/21 01:51:56;;;;;;;35.15;18.17;;;0.50;74.10;;;;;;4667916;30;114650;-82
2023/01/21 01:54:46;;;;;;;35.90;17.80;;;0.50;74.10;;;;;;4668642;30;114585;-82
2023/01/21 01:57:16;;;;;;;35.65;17.20;;;0.50;74.00;;;;;;4640055;30;115266;-82
2023/01/21 01:59:43;;;;;;;34.83;17.95;;;0.50;73.90;;;;;;4667774;30;115038;-82
2023/01/21 02:02:13;;;;;;;34.20;17.67;;;0.50;73.90;;;;;;4668224;30;114857;-82
2023/01/21 02:04:53;;;;;;;36.80;17.10;;;0.50;74.00;;;;;;4652691;30;117832;-82
2023/01/21 02:07:21;;;;;;;33.25;17.35;;;0.50;74.10;;;;;;4651482;30;115257;-82
2023/01/21 02:09:49;;;;;;;31.67;15.70;;;0.50;74.00;;;;;;4635617;30;116794;-82
2023/01/21 02:12:16;;;;;;;32.30;16.05;;;0.50;73.90;;;;;;4635275;30;115001;-82
2023/01/21 02:14:44;;;;;;;33.85;15.70;;;0.50;73.80;;;;;;4649494;30;115167;-81
2023/01/21 02:17:31;;;;;;;35.33;16.60;;;0.40;73.80;;;;;;4634487;30;115799;-82
2023/01/21 02:20:28;;;;;;;29.75;15.43;;;0.40;73.90;;;;;;4650568;30;114921;-82
2023/01/21 02:23:33;;;;;;;30.52;14.85;;;0.40;74.00;;;;;;4648496;30;114841;-82
2023/01/21 02:26:18;;;;;;;;;;;0.30;74.00;;;;;;4659846;30;114590;-82
2023/01/21 02:29:08;;;;;;;30.65;14.15;;;0.20;73.90;;;;;;4665360;30;115118;-82
2023/01/21 02:32:13;;;;;;;31.98;15.07;;;0.30;74.10;;;;;;4664856;30;114850;-82
2023/01/21 02:35:22;;;;;;;31.25;16.05;;;0.20;74.10;;;;;;4637810;30;114619;-82
2023/01/21 02:38:18;;;;;;;28.88;14.07;;;0.20;74.20;;;;;;4631325;30;114656;-82
2023/01/21 02:41:09;;;;;;;29.67;14.40;;;0.20;74.30;;;;;;4666733;30;115377;-83
2023/01/21 02:43:53;;;;;;;30.98;15.52;;;0.20;74.30;;;;;;4649525;30;116635;-83
2023/01/21 02:47:06;;;;;;;29.63;14.90;;;0.20;74.40;;;;;;4636765;30;114850;-82
2023/01/21 02:50:03;;;;;;;33.78;15.68;;;0.20;74.50;;;;;;4667514;30;115346;-82
2023/01/21 02:52:30;;;;;;;31.48;14.35;;;0.20;74.50;;;;;;4650236;30;115111;-82
2023/01/21 02:54:59;;;;;;;31.48;15.55;;;0.20;74.40;;;;;;4666677;30;115004;-82
2023/01/21 02:57:44;;;;;;;27.63;13.43;;;0.20;74.40;;;;;;4652011;30;114543;-82
2023/01/21 03:00:24;;;;;;;30.80;14.35;;;0.30;74.50;;;;;;4649636;30;114936;-82
2023/01/21 03:03:28;;;;;;;26.67;14.15;;;0.30;74.40;;;;;;4647979;30;115172;-82
2023/01/21 03:06:31;;;;;;;30.42;14.82;;;0.30;74.50;;;;;;4665251;30;116710;-81
2023/01/21 03:09:26;;;;;;;28.38;15.25;;;0.30;74.30;;;;;;4663661;30;114861;-82
2023/01/21 03:12:14;;;;;;;27.92;13.55;;;0.20;74.20;;;;;;4651920;30;114818;-82
2023/01/21 03:18:11;;;;;;;29.33;14.18;;;0.20;74.30;;;;;;4662507;30;116728;-82
2023/01/21 03:20:46;;;;;;;28.88;15.55;;;0.20;74.40;;;;;;4665027;30;114811;-82
2023/01/21 03:23:36;;;;;;;27.00;14.15;;;0.20;74.40;;;;;;4651762;30;114742;-83
2023/01/21 03:26:03;;;;;;;31.98;13.80;;;0.20;74.30;;;;;;4666463;30;115077;-82
2023/01/21 03:28:32;;;;;;;31.23;14.85;;;0.20;74.30;;;;;;4650954;30;115023;-81
2023/01/21 03:31:07;;;;;;;32.25;16.20;;;0.20;74.40;;;;;;4634884;30;114543;-82
2023/01/21 03:33:37;;;;;;;33.38;16.77;;;0.20;74.30;;;;;;4652706;30;114735;-81
2023/01/21 03:36:12;;;;;;;31.20;15.75;;;0.20;74.20;;;;;;4632196;30;115252;-82
2023/01/21 03:38:47;;;;;;;42.55;20.55;;;0.20;74.20;;;;;;4637776;30;114892;-81
2023/01/21 03:41:23;;;;;;;35.13;19.27;;;0.20;74.30;;;;;;4635437;30;114837;-82
2023/01/21 03:43:51;;;;;;;38.63;20.02;;;0.20;74.30;;;;;;4621646;30;117035;-82
2023/01/21 03:46:30;;;;;;;41.85;20.52;;;0.20;74.20;;;;;;4649374;30;115185;-81
2023/01/21 03:49:18;;;;;;;47.90;23.83;;;0.20;74.30;;;;;;4649385;30;116217;-82
2023/01/21 03:51:54;;;;;;;50.00;23.50;;;0.20;74.30;;;;;;4635474;30;114943;-82
2023/01/21 03:54:21;;;;;;;46.65;21.75;;;0.10;74.00;;;;;;4630684;30;114550;-82
2023/01/21 03:56:48;;;;;;;55.75;23.80;;;0.10;74.20;;;;;;4637678;30;115114;-82
2023/01/21 03:59:16;;;;;;;45.35;21.33;;;0.10;74.20;;;;;;4667374;30;116612;-82
2023/01/21 04:01:43;;;;;;;49.10;23.27;;;0.00;74.20;;;;;;4668210;30;114781;-83
2023/01/21 04:04:10;;;;;;;49.25;24.02;;;0.10;74.20;;;;;;4668318;30;114420;-83
2023/01/21 04:06:37;;;;;;;44.75;22.08;;;0.10;74.20;;;;;;4667195;30;115117;-83
2023/01/21 04:09:05;;;;;;;51.08;23.35;;;0.10;74.10;;;;;;4667148;30;114785;-83
2023/01/21 04:11:33;;;;;;;45.50;22.70;;;0.00;74.10;;;;;;4652000;30;114794;-83
2023/01/21 04:14:00;;;;;;;45.72;22.00;;;0.00;74.20;;;;;;4667862;30;119191;-83
2023/01/21 04:16:28;;;;;;;42.03;20.23;;;0.10;74.10;;;;;;4651127;30;115857;-82
2023/01/21 04:18:55;;;;;;;51.22;23.48;;;0.10;74.10;;;;;;4667070;30;114647;-82
2023/01/21 04:21:22;;;;;;;43.72;22.13;;;0.00;74.10;;;;;;4668110;30;115384;-83
2023/01/21 04:23:49;;;;;;;50.92;22.88;;;0.00;74.20;;;;;;4665149;30;114807;-83
2023/01/21 04:26:17;;;;;;;42.10;19.77;;;0.00;74.20;;;;;;4648333;30;115224;-83
2023/01/21 04:28:44;;;;;;;38.58;19.98;;;0.00;74.20;;;;;;4648129;30;114889;-83
2023/01/21 04:31:11;;;;;;;44.47;21.80;;;0.00;74.20;;;;;;4663210;30;114865;-83
2023/01/21 04:33:38;;;;;;;40.65;19.55;;;-0.10;74.20;;;;;;4673881;30;114761;-84
2023/01/21 04:36:05;;;;;;;42.40;20.83;;;-0.10;74.10;;;;;;4665273;30;115321;-82
2023/01/21 04:38:33;;;;;;;37.50;19.58;;;-0.20;74.10;;;;;;4655219;30;119846;-83
2023/01/21 04:41:00;;;;;;;42.63;20.33;;;-0.20;74.30;;;;;;4669316;30;114988;-83
2023/01/21 04:43:27;;;;;;;37.80;17.90;;;-0.20;74.30;;;;;;4673978;30;116811;-82
2023/01/21 04:45:54;;;;;;;40.63;20.00;;;-0.20;74.50;;;;;;4663757;30;115284;-82
2023/01/21 04:48:22;;;;;;;42.63;20.20;;;-0.20;74.50;;;;;;4668188;30;114911;-83
2023/01/21 04:50:49;;;;;;;37.60;19.25;;;-0.10;74.40;;;;;;4669135;30;114668;-83
2023/01/21 04:53:20;;;;;;;38.38;19.38;;;-0.10;74.40;;;;;;4642026;30;114870;-81
2023/01/21 04:55:50;;;;;;;34.83;17.35;;;0.00;74.40;;;;;;4672781;30;115225;-83
2023/01/21 04:58:19;;;;;;;36.83;18.40;;;-0.10;74.10;;;;;;4668900;30;117527;-82
2023/01/21 05:00:46;;;;;;;35.65;18.50;;;-0.10;74.10;;;;;;4668926;30;115176;-82
2023/01/21 05:03:15;;;;;;;40.42;18.70;;;-0.20;74.10;;;;;;4657385;30;114836;-82
2023/01/21 05:05:42;;;;;;;34.92;17.00;;;-0.20;74.20;;;;;;4669062;30;119326;-82
2023/01/21 05:08:09;;;;;;;33.05;16.02;;;-0.20;74.10;;;;;;4677286;30;114686;-81
2023/01/21 05:10:36;;;;;;;36.15;17.65;;;-0.30;74.10;;;;;;4648876;30;114614;-82
2023/01/21 05:13:04;;;;;;;37.70;18.17;;;-0.20;74.20;;;;;;4677828;30;114748;-82
2023/01/21 05:15:31;;;;;;;35.75;17.33;;;-0.30;74.20;;;;;;4657123;30;115076;-82
2023/01/21 05:17:59;;;;;;;35.88;17.77;;;-0.30;74.10;;;;;;4660571;30;118964;-83
2023/01/21 05:20:26;;;;;;;35.92;17.45;;;-0.30;74.20;;;;;;4652696;30;114977;-83
2023/01/21 05:22:54;;;;;;;38.58;16.50;;;-0.30;74.30;;;;;;4654442;30;115101;-81
2023/01/21 05:25:21;;;;;;;37.08;17.50;;;-0.30;74.30;;;;;;4673373;30;115218;-82
2023/01/21 05:27:52;;;;;;;50.47;22.15;;;-0.30;74.40;;;;;;4676941;30;114699;-82
2023/01/21 05:30:20;;;;;;;40.22;19.52;;;-0.20;74.40;;;;;;4654258;30;114646;-82
2023/01/21 05:32:52;;;;;;;44.08;20.08;;;-0.30;74.30;;;;;;4675408;30;115077;-83
2023/01/21 05:35:20;;;;;;;44.90;19.25;;;-0.30;74.30;;;;;;4639118;30;116943;-83
2023/01/21 05:37:47;;;;;;;41.63;19.25;;;-0.30;74.20;;;;;;4670564;30;114760;-82
2023/01/21 05:40:15;;;;;;;39.35;19.17;;;-0.30;74.20;;;;;;4670753;30;114617;-82
2023/01/21 05:42:43;;;;;;;37.25;19.23;;;-0.30;74.10;;;;;;4655322;30;114565;-81
2023/01/21 05:45:13;;;;;;;39.10;18.85;;;-0.40;74.20;;;;;;4659124;30;115667;-82
2023/01/21 05:47:40;;;;;;;34.45;17.60;;;-0.40;74.30;;;;;;4656549;30;118961;-82
2023/01/21 05:50:08;;;;;;;35.90;18.45;;;-0.40;74.40;;;;;;4678053;30;114734;-82
2023/01/21 05:52:36;;;;;;;30.98;16.02;;;-0.40;74.30;;;;;;4669100;30;114569;-82
2023/01/21 05:55:04;;;;;;;35.47;17.20;;;-0.40;74.30;;;;;;4672266;30;119303;-82
2023/01/21 05:57:31;;;;;;;36.13;16.70;;;-0.40;74.30;;;;;;4675558;30;114746;-82
2023/01/21 05:59:59;;;;;;;39.15;19.35;;;-0.30;74.30;;;;;;4659462;30;114541;-81
2023/01/21 06:02:26;;;;;;;36.03;17.35;;;-0.40;74.30;;;;;;4675845;30;114407;-83
2023/01/21 06:04:56;;;;;;;37.70;18.90;;;-0.30;74.40;;;;;;4670089;30;115354;-82
2023/01/21 06:07:24;;;;;;;37.67;19.60;;;-0.30;74.50;;;;;;4676248;30;114750;-82
2023/01/21 06:09:51;;;;;;;38.92;17.90;;;-0.30;74.40;;;;;;4654465;30;114597;-81
2023/01/21 06:12:19;;;;;;;41.85;18.55;;;-0.30;74.30;;;;;;4678643;30;114492;-83
2023/01/21 06:14:49;;;;;;;39.95;18.92;;;-0.30;74.40;;;;;;4671905;30;115285;-82
2023/01/21 06:17:17;;;;;;;35.42;18.73;;;-0.30;74.40;;;;;;4640862;30;116828;-82
2023/01/21 06:19:44;;;;;;;35.47;17.15;;;-0.30;74.20;;;;;;4658556;30;114866;-82
2023/01/21 06:22:15;;;;;;;32.03;17.08;;;-0.20;74.20;;;;;;4657018;30;114890;-82
2023/01/21 06:24:52;;;;;;;38.63;17.75;;;-0.20;74.10;;;;;;4671789;30;114855;-82
2023/01/21 06:27:22;;;;;;;40.45;18.83;;;-0.20;74.10;;;;;;4657023;30;116552;-82
2023/01/21 06:29:55;;;;;;;33.83;17.00;;;-0.30;74.10;;;;;;4671925;30;114671;-81
2023/01/21 06:32:22;;;;;;;38.65;18.60;;;-0.20;74.10;;;;;;4672693;30;114594;-83
2023/01/21 06:34:49;;;;;;;36.30;17.00;;;-0.20;74.10;;;;;;4667333;30;115653;-83
2023/01/21 06:37:16;;;;;;;33.63;17.77;;;-0.10;74.00;;;;;;4667400;30;114687;-82
2023/01/21 06:39:43;;;;;;;40.42;21.27;;;-0.20;74.10;;;;;;4653230;30;114698;-84
2023/01/21 06:42:13;;;;;;;43.05;21.25;;;-0.10;74.00;;;;;;4668520;30;114785;-84
2023/01/21 06:44:40;;;;;;;39.53;19.38;;;-0.10;73.90;;;;;;4666783;30;115568;-82
2023/01/21 06:47:08;;;;;;;37.00;18.48;;;-0.10;74.00;;;;;;4666838;30;115141;-83
2023/01/21 06:49:35;;;;;;;43.70;20.83;;;-0.10;74.00;;;;;;4678731;30;115277;-82
2023/01/21 06:52:02;;;;;;;37.35;19.50;;;0.00;73.90;;;;;;4671173;30;114727;-83
2023/01/21 06:54:30;;;;;;;40.60;20.75;;;-0.10;73.90;;;;;;4674105;30;115371;-82
2023/01/21 06:56:57;;;;;;;43.33;21.00;;;0.00;73.90;;;;;;4673034;30;116212;-82
2023/01/21 06:59:25;;;;;;;39.10;20.13;;;0.00;73.70;;;;;;4644907;30;114441;-84
2023/01/21 07:01:52;;;;;;;39.47;20.58;;;0.00;73.80;;;;;;4671517;30;114701;-82
2023/01/21 07:04:20;;;;;;;36.10;19.73;;;0.10;73.80;;;;;;4674346;30;117140;-84
2023/01/21 07:06:47;;;;;;;43.83;23.05;;;0.00;73.80;;;;;;4654405;30;115389;-83
2023/01/21 07:09:14;;;;;;;41.88;21.70;;;0.10;73.70;;;;;;4672742;30;114838;-82
2023/01/21 07:11:41;;;;;;;40.20;21.60;;;0.10;73.60;;;;;;4663560;30;114641;-83
2023/01/21 07:14:09;;;;;;;47.58;22.75;;;0.10;73.60;;;;;;4651179;30;115067;-82
2023/01/21 07:16:36;;;;;;;44.88;22.55;;;0.00;73.60;;;;;;4635712;30;114650;-82
2023/01/21 07:19:04;;;;;;;50.65;24.85;;;0.10;73.60;;;;;;4669093;30;114388;-83
2023/01/21 07:21:31;;;;;;;44.95;24.27;;;0.10;73.60;;;;;;4651068;30;114932;-83
2023/01/21 07:23:59;;;;;;;46.88;25.13;;;0.10;73.50;;;;;;4650847;30;115612;-83
2023/01/21 07:26:27;;;;;;;46.83;25.50;;;0.10;73.60;;;;;;4635648;30;117302;-82
2023/01/21 07:28:54;;;;;;;45.15;25.05;;;0.10;73.60;;;;;;4650754;30;114707;-83
2023/01/21 07:31:21;;;;;;;47.00;25.05;;;0.20;73.60;;;;;;4648380;30;114948;-84
2023/01/21 07:33:48;;;;;;;47.33;25.08;;;0.30;73.50;;;;;;4663548;30;115189;-83
2023/01/21 07:36:16;;;;;;;45.92;24.00;;;0.30;73.30;;;;;;4671979;30;116603;-83
2023/01/21 07:38:46;;;;;;;45.03;24.00;;;0.30;73.20;;;;;;4665237;30;114514;-84
2023/01/21 07:41:16;;;;;;;39.25;20.90;;;0.30;73.20;;;;;;4622079;30;114975;-83
2023/01/21 07:43:46;;;;;;;44.28;21.33;;;0.20;73.30;;;;;;4649620;30;115153;-84
2023/01/21 07:46:20;;;;;;;37.75;19.70;;;0.30;73.20;;;;;;4650910;30;114738;-84
2023/01/21 07:48:51;;;;;;;36.30;19.15;;;0.30;73.30;;;;;;4650961;30;114889;-83
2023/01/21 07:51:20;;;;;;;43.55;21.60;;;0.30;73.50;;;;;;4650681;30;114487;-82
2023/01/21 07:53:47;;;;;;;37.05;21.55;;;0.40;73.40;;;;;;4648405;30;115160;-83
2023/01/21 07:56:15;;;;;;;39.47;20.90;;;0.40;73.30;;;;;;4634787;30;115203;-82
2023/01/21 07:58:42;;;;;;;39.03;22.58;;;0.40;73.30;;;;;;4650405;30;115218;-83
2023/01/21 08:01:09;;;;;;;40.13;21.48;;;0.40;73.30;;;;;;4635747;30;114862;-83
2023/01/21 08:03:37;;;;;;;37.65;21.00;;;0.50;73.20;;;;;;4649308;30;116405;-84
2023/01/21 08:06:06;;;;;;;41.13;20.88;;;0.40;73.00;;;;;;4635174;30;114730;-83
2023/01/21 08:08:34;;;;;;;42.10;22.52;;;0.40;73.00;;;;;;4649456;30;114833;-82
2023/01/21 08:11:01;;;;;;;45.50;23.38;;;0.40;72.90;;;;;;4649433;30;114811;-82
2023/01/21 08:13:28;;;;;;;43.80;23.92;;;0.40;73.00;;;;;;4665157;30;115999;-83
2023/01/21 08:15:55;;;;;;;42.80;21.80;;;0.40;73.10;;;;;;4650798;30;114687;-83
2023/01/21 08:18:23;;;;;;;38.60;21.35;;;0.40;73.00;;;;;;4650929;30;114433;-83
2023/01/21 08:20:54;;;;;;;48.10;24.23;;;0.40;73.00;;;;;;4658054;30;114755;-83
2023/01/21 08:23:22;;;;;;;46.30;23.80;;;0.40;73.00;;;;;;4664885;30;115216;-83
2023/01/21 08:25:49;;;;;;;48.05;23.55;;;0.40;73.10;;;;;;4650858;30;115124;-84
2023/01/21 08:28:19;;;;;;;44.92;21.88;;;0.40;73.10;;;;;;4654997;30;114868;-83
2023/01/21 08:30:49;;;;;;;42.92;22.42;;;0.50;73.00;;;;;;4669584;30;114719;-84
2023/01/21 08:33:16;;;;;;;39.13;21.17;;;0.50;73.00;;;;;;4653273;30;116766;-83
2023/01/21 08:35:45;;;;;;;41.63;21.17;;;0.50;73.10;;;;;;4620035;30;116007;-83
2023/01/21 08:38:12;;;;;;;37.20;21.60;;;0.50;73.10;;;;;;4653923;30;115182;-83
2023/01/21 08:40:39;;;;;;;43.72;21.75;;;0.50;73.20;;;;;;4638444;30;114716;-83
2023/01/21 08:43:08;;;;;;;40.20;21.27;;;0.60;73.10;;;;;;4668533;30;115307;-83
2023/01/21 08:45:35;;;;;;;40.17;21.27;;;0.60;72.90;;;;;;4669831;30;119803;-83
2023/01/21 08:48:03;;;;;;;41.30;21.15;;;0.60;72.90;;;;;;4670499;30;114846;-83
2023/01/21 08:50:30;;;;;;;41.78;21.90;;;0.50;72.80;;;;;;4653963;30;114771;-85
2023/01/21 08:52:58;;;;;;;45.28;24.63;;;0.50;72.90;;;;;;4668190;30;115177;-83
2023/01/21 08:55:27;;;;;;;40.42;22.02;;;0.50;73.00;;;;;;4653408;30;115210;-83
2023/01/21 08:57:54;;;;;;;44.80;23.48;;;0.60;73.00;;;;;;4670146;30;114793;-83
2023/01/21 09:00:22;;;;;;;43.60;23.05;;;0.60;73.00;;;;;;4670263;30;114481;-82
2023/01/21 09:02:51;;;;;;;43.88;23.73;;;0.60;72.80;;;;;;4669025;30;115244;-83
2023/01/21 09:05:18;;;;;;;47.08;24.08;;;0.60;72.70;;;;;;4654708;30;118610;-83
2023/01/21 09:07:46;;;;;;;38.47;21.55;;;0.70;72.60;;;;;;4667407;30;114517;-83
2023/01/21 09:10:59;;;;;;;38.80;21.05;;;0.60;72.70;;;;;;4667078;30;116518;-83
2023/01/21 09:13:05;;;;;;;38.03;21.15;;;0.70;72.60;;;;;;4667591;30;115612;-83
2023/01/21 09:15:41;;;;;;;38.42;21.48;;;0.60;72.60;;;;;;4622331;30;117659;-82
2023/01/21 09:18:09;;;;;;;36.03;19.40;;;0.70;72.70;;;;;;4663391;30;114938;-82
2023/01/21 09:20:38;;;;;;;36.58;20.65;;;0.70;72.70;;;;;;4639000;30;114822;-84
2023/01/21 09:23:22;;;;;;;38.50;21.65;;;0.70;72.60;;;;;;4637185;30;115108;-84
2023/01/21 09:26:07;;;;;;;41.67;23.17;;;0.70;72.60;;;;;;4654742;30;114879;-83
2023/01/21 09:28:46;;;;;;;40.28;21.83;;;0.70;72.70;;;;;;4658173;30;114750;-84
2023/01/21 09:31:20;;;;;;;38.70;19.95;;;0.80;72.60;;;;;;4651751;30;115227;-84
2023/01/21 09:33:50;;;;;;;30.52;18.42;;;0.90;72.60;;;;;;4647544;30;117819;-84
2023/01/21 09:36:20;;;;;;;33.13;18.90;;;0.90;72.60;;;;;;4667396;30;115279;-82
2023/01/21 09:38:48;;;;;;;32.55;18.13;;;0.90;72.50;;;;;;4675010;30;114507;-83
2023/01/21 09:41:41;;;;;;;37.63;19.73;;;1.00;72.60;;;;;;4667692;30;114585;-83
2023/01/21 09:44:29;;;;;;;34.47;18.77;;;1.00;72.30;;;;;;4648520;30;115427;-84
2023/01/21 09:47:20;;;;;;;35.83;17.90;;;1.00;72.30;;;;;;4666086;30;118491;-84
2023/01/21 09:50:15;;;;;;;33.80;18.63;;;0.90;72.30;;;;;;4653066;30;114807;-84
2023/01/21 09:52:44;;;;;;;38.55;20.27;;;0.90;72.40;;;;;;4648986;30;117744;-84
2023/01/21 09:55:25;;;;;;;33.45;18.20;;;1.00;72.40;;;;;;4664513;30;115190;-83
2023/01/21 09:58:09;;;;;;;31.45;18.92;;;1.00;72.50;;;;;;4648727;30;117969;-84
2023/01/21 10:01:12;;;;;;;36.25;21.02;;;1.10;72.60;;;;;;4651304;30;114744;-84
2023/01/21 10:03:52;;;;;;;41.67;22.75;;;1.00;72.50;;;;;;4664294;30;117746;-83
2023/01/21 10:06:37;;;;;;;34.92;19.23;;;1.00;72.50;;;;;;4632870;30;116386;-84
2023/01/21 10:09:32;;;;;;;31.05;18.13;;;1.00;72.40;;;;;;4667315;30;114864;-84
2023/01/21 10:12:41;;;;;;;32.13;18.20;;;1.00;72.60;;;;;;4666616;30;114721;-84
2023/01/21 10:15:19;;;;;;;34.35;18.80;;;1.10;72.60;;;;;;4644950;30;114711;-84
2023/01/21 10:18:07;;;;;;;35.33;19.83;;;1.10;72.50;;;;;;4664655;30;117149;-84
2023/01/21 10:20:52;;;;;;;32.50;18.27;;;1.10;72.30;;;;;;4651815;30;117797;-85
2023/01/21 10:23:27;;;;;;;33.40;19.23;;;1.00;72.40;;;;;;4630008;30;114750;-86
2023/01/21 10:25:55;;;;;;;35.10;19.88;;;1.00;72.50;;;;;;4653568;30;117192;-85
2023/01/21 10:28:31;;;;;;;33.50;18.80;;;1.00;72.40;;;;;;4652676;30;116654;-85
2023/01/21 10:31:41;;;;;;;33.17;18.52;;;1.10;72.20;;;;;;4670662;30;115178;-85
2023/01/21 10:34:19;;;;;;;36.97;18.63;;;1.00;72.20;;;;;;4636899;30;114888;-83
2023/01/21 10:36:53;;;;;;;37.03;18.88;;;0.90;72.30;;;;;;4654198;30;114784;-83
2023/01/21 10:39:24;;;;;;;30.20;17.10;;;0.90;72.30;;;;;;4650138;30;115844;-83
2023/01/21 10:42:21;;;;;;;33.45;18.73;;;0.90;72.40;;;;;;4650410;30;115305;-84
2023/01/21 10:45:24;;;;;;;30.13;17.50;;;1.00;72.60;;;;;;4649033;30;114414;-83
2023/01/21 10:48:35;;;;;;;33.28;18.73;;;1.10;72.60;;;;;;4665425;30;114593;-85
2023/01/21 10:52:11;;;;;;;34.60;18.90;;;1.10;72.50;;;;;;4641138;30;115615;-83
2023/01/21 10:54:58;;;;;;;40.95;21.13;;;1.20;72.50;;;;;;4622937;30;115328;-84
2023/01/21 10:57:31;;;;;;;42.78;22.60;;;1.20;72.40;;;;;;4603286;30;114650;-84
2023/01/21 10:59:59;;;;;;;39.70;22.77;;;1.20;72.30;;;;;;4650596;30;114623;-81
2023/01/21 11:02:31;;;;;;;37.90;20.55;;;1.20;72.40;;;;;;4621974;30;118181;-84
2023/01/21 11:05:03;;;;;;;34.72;19.85;;;1.30;72.30;;;;;;4648526;30;117173;-85
2023/01/21 11:07:38;;;;;;;35.92;20.63;;;1.30;72.00;;;;;;4634959;30;114670;-83
2023/01/21 11:10:19;;;;;;;31.35;18.42;;;1.30;72.00;;;;;;4646393;30;114564;-83
2023/01/21 11:12:47;;;;;;;29.80;18.00;;;1.30;72.10;;;;;;4620907;30;115505;-83
2023/01/21 11:15:17;;;;;;;35.03;19.42;;;1.40;72.20;;;;;;4635023;30;117116;-83
2023/01/21 11:17:47;;;;;;;33.38;18.55;;;1.40;72.10;;;;;;4650143;30;114912;-82
2023/01/21 11:20:21;;;;;;;33.90;18.98;;;1.40;72.00;;;;;;4635367;30;115083;-82
2023/01/21 11:22:51;;;;;;;38.72;22.75;;;1.50;72.00;;;;;;4662018;30;114802;-83
2023/01/21 11:25:40;;;;;;;38.45;21.35;;;1.50;72.00;;;;;;4649876;30;115156;-85
2023/01/21 11:28:28;;;;;;;38.00;21.17;;;1.60;72.00;;;;;;4621188;30;115007;-85
2023/01/21 11:31:13;;;;;;;32.65;20.00;;;1.60;72.00;;;;;;4646903;30;114533;-83
2023/01/21 11:33:41;;;;;;;33.45;19.15;;;1.70;71.80;;;;;;4647265;30;115426;-86
2023/01/21 11:36:19;;;;;;;36.05;19.90;;;1.60;71.50;;;;;;4634054;30;115882;-84
2023/01/21 11:39:04;;;;;;;35.00;19.45;;;1.70;71.40;;;;;;4621091;30;114757;-84
2023/01/21 11:41:32;;;;;;;36.13;19.92;;;1.70;71.50;;;;;;4621292;30;114784;-84
2023/01/21 11:44:17;;;;;;;34.90;18.90;;;1.70;71.40;;;;;;4634056;30;115264;-84
2023/01/21 11:46:44;;;;;;;;;;;1.70;71.30;;;;;;4634414;30;114955;-84
2023/01/21 11:49:14;;;;;;;37.10;19.58;;;1.60;71.40;;;;;;4648921;30;114527;-82
2023/01/21 11:51:42;;;;;;;33.72;18.77;;;1.60;71.30;;;;;;4650490;30;114887;-82
2023/01/21 11:54:21;;;;;;;38.05;19.80;;;1.60;71.40;;;;;;4648414;30;115768;-82
2023/01/21 11:57:01;;;;;;;36.40;22.15;;;1.60;71.30;;;;;;4634209;30;114788;-82
2023/01/21 11:59:37;;;;;;;36.75;21.23;;;1.70;71.10;;;;;;4648612;30;114670;-82
2023/01/21 12:02:28;;;;;;;41.47;22.15;;;1.60;71.10;;;;;;4620779;30;115141;-82
2023/01/21 12:05:23;;;;;;;37.53;20.00;;;1.60;71.30;;;;;;4648009;30;115666;-82
2023/01/21 12:07:52;;;;;;;36.63;21.13;;;1.60;71.20;;;;;;4648195;30;115126;-83
2023/01/21 12:10:57;;;;;;;40.63;21.42;;;1.50;71.30;;;;;;4619999;30;114784;-82
2023/01/21 12:14:04;;;;;;;36.72;21.42;;;1.60;71.20;;;;;;4647113;30;115579;-82
2023/01/21 12:16:38;;;;;;;36.70;20.75;;;1.50;71.40;;;;;;4646934;30;116688;-83
2023/01/21 12:19:23;;;;;;;36.08;20.08;;;1.60;71.50;;;;;;4648000;30;114940;-85
2023/01/21 12:22:17;;;;;;;;;;;1.60;71.40;;;;;;4648999;30;117717;-83
2023/01/21 12:25:24;;;;;;;35.10;18.98;;;1.60;71.50;;;;;;4620754;30;115040;-83
2023/01/21 12:28:12;;;;;;;39.15;19.80;;;1.60;71.50;;;;;;4647313;30;115125;-83
2023/01/21 12:31:22;;;;;;;34.75;20.20;;;1.60;71.40;;;;;;4633174;30;115328;-84
2023/01/21 12:34:04;;;;;;;37.55;20.30;;;1.60;71.40;;;;;;4647337;30;114954;-83
2023/01/21 12:37:04;;;;;;;36.05;21.08;;;1.60;71.40;;;;;;4633578;30;114722;-83
2023/01/21 12:39:37;;;;;;;35.38;20.92;;;1.60;71.40;;;;;;4632970;30;115839;-83
2023/01/21 12:42:14;;;;;;;34.93;19.00;;;1.60;71.40;;;;;;4633633;30;115260;-83
2023/01/21 12:44:53;;;;;;;34.22;19.92;;;1.70;71.40;;;;;;4648070;30;114683;-83
2023/01/21 12:47:51;;;;;;;35.85;20.25;;;1.70;71.30;;;;;;4633508;30;116318;-83
2023/01/21 12:50:40;;;;;;;37.22;19.67;;;1.70;71.20;;;;;;4618824;30;118258;-84
2023/01/21 12:53:31;;;;;;;37.25;21.02;;;1.70;71.30;;;;;;4633303;30;115263;-84
2023/01/21 12:56:21;;;;;;;38.20;20.67;;;1.70;71.10;;;;;;4648711;30;114800;-84
2023/01/21 12:59:37;;;;;;;35.90;20.20;;;1.70;71.00;;;;;;4648273;30;114976;-82
2023/01/21 13:02:25;;;;;;;38.30;20.52;;;1.70;71.10;;;;;;4645759;30;115168;-82
2023/01/21 13:05:03;;;;;;;35.17;20.95;;;1.70;71.20;;;;;;4635117;30;116038;-82
2023/01/21 13:07:49;;;;;;;37.55;21.40;;;1.70;71.10;;;;;;4620763;30;114735;-83